Aeroporto :







RITROVATECI SU...

 
LOGIN :

Iscrizione | Disclaimer

   EN    FR    IT 

 









Sommario :    VFR   VFR Marginale   IFR   IFR Intensivo   IFR Molto Intensivo
Visibilità : 
Base nubi : 
>= 8 km
>= 3000ft
5 / 8 km
1000 / 3000 ft
1500m / 5 km
500 / 1000 ft
800 / 1500m
200 / 500 ft
< 800m
< 200 ft
Simboli :   Temporali  Nebbia  Neve Forte  Precipitazioni Forti  Vento > 20 kt






- Altitudine del aeroporto : 36 ft
- Codice IATA : PTP


TFFR - Le Raizet

ULTIMO METAR :
  • 270230Z AUTO 27003KT 9999 OVC049 24/21 Q1017 NOSIG

METARs OBSOLETI :
  • 270200Z AUTO 06001KT 9999 OVC049 24/20 Q1017 NOSIG
  • 270130Z AUTO VRB02KT 9999 OVC050 23/20 Q1017
  • 270100Z AUTO 08004KT 9999 OVC050 23/20 Q1017 NOSIG
  • 270030Z AUTO 07004KT 9999 FEW031 BKN048 OVC054 24/20 Q1016 NOSIG
  • 270000Z AUTO 05004KT 020V080 9999 FEW029 OVC049 23/20 Q1016 NOSIG

TAF TAF TFFR
Valido dal 27 a 00 ore il 28 a 00 ore UTC


262300Z 2700/2724 07010KT 9999 SCT025
BECMG 2701/2703 VRB03KT
BECMG 2712/2714 14010KT
PROB30
TEMPO 2714/2722 4000 SHRA SCT015 BKN020TCU



MetMap, La meteo Aeronautica in un colpo d'occhio ! - Copyright ORBIFLY Dicembre 2007 - Disclaimer

ORBIFLY MET'MAP TEAM :

Programmazione e sviluppo : Alexandra Zaïnal
Concezione : Baudouin d'Aumeries
Aiuto per la programmazione : Marc-Olivier Méhu
Supporto tecnico e logistico : Manuel Goepfert
Aiuto per la traduzione : Arnaldo La Scala

Contatto : metmap@orbifly.com




FONTI E CREDITI :

   NOAA